Time;durP1;ratioP1;P1;durP2;ratioP2;P2;SDS_P1;SDS_P2;PMS_P1;PMS_P2;Temp;Humidity;BMP_temperature;BMP_pressure;BME280_temperature;BME280_humidity;BME280_pressure;Samples;Min_cycle;Max_cycle;Signal;HPM_P1;HPM_P2
2023/07/13 00:02:14;;;;;;;2.50;1.60;;;;;;;20.29;70.87;100512.00;4935552;29;20209;-81
2023/07/13 00:04:40;;;;;;;2.00;1.70;;;;;;;20.25;70.57;100503.38;4934636;29;20316;-81
2023/07/13 00:07:07;;;;;;;2.07;1.63;;;;;;;20.23;70.71;100505.25;4934814;29;20207;-79
2023/07/13 00:09:34;;;;;;;2.27;1.73;;;;;;;20.21;70.86;100497.38;4940432;28;20221;-81
2023/07/13 00:12:02;;;;;;;2.63;1.90;;;;;;;20.21;71.15;100509.78;4934854;28;20212;-81
2023/07/13 00:14:30;;;;;;;2.37;2.00;;;;;;;20.18;71.31;100497.59;4934323;29;20229;-81
2023/07/13 00:16:57;;;;;;;2.30;1.60;;;;;;;20.18;71.57;100488.78;4934914;29;20202;-81
2023/07/13 00:19:25;;;;;;;3.57;2.50;;;;;;;20.13;71.79;100482.88;4957706;28;20259;-82
2023/07/13 00:21:55;;;;;;;2.10;1.90;;;;;;;20.12;71.92;100484.69;4956405;28;20284;-82
2023/07/13 00:24:23;;;;;;;2.20;1.90;;;;;;;20.10;71.99;100486.56;4954473;28;20291;-81
2023/07/13 00:26:50;;;;;;;2.40;2.13;;;;;;;20.07;72.26;100478.78;4956673;28;20202;-82
2023/07/13 00:29:16;;;;;;;2.53;2.07;;;;;;;20.08;71.76;100480.50;4935696;29;20790;-82
2023/07/13 00:31:44;;;;;;;2.47;2.20;;;;;;;20.06;71.95;100473.56;4935499;29;20243;-82
2023/07/13 00:34:10;;;;;;;1.97;1.63;;;;;;;20.06;72.09;100468.28;4936749;28;20241;-82
2023/07/13 00:36:38;;;;;;;2.80;2.10;;;;;;;19.99;72.57;100465.13;4954201;28;20209;-82
2023/07/13 00:39:05;;;;;;;2.47;2.27;;;;;;;19.95;72.60;100461.81;4948090;28;20205;-81
2023/07/13 00:41:32;;;;;;;2.63;2.10;;;;;;;19.95;72.76;100455.66;4953258;28;20209;-82
2023/07/13 00:43:58;;;;;;;2.43;2.00;;;;;;;19.91;73.29;100441.72;4961268;28;20228;-82
2023/07/13 00:46:27;;;;;;;2.73;2.10;;;;;;;19.90;73.61;100431.22;4946703;28;20227;-82
2023/07/13 00:48:57;;;;;;;3.70;2.37;;;;;;;19.90;73.65;100434.75;4961565;28;20231;-82
2023/07/13 00:51:29;;;;;;;2.10;1.73;;;;;;;19.89;72.60;100443.63;4936175;28;20213;-82
2023/07/13 00:54:00;;;;;;;2.60;2.20;;;;;;;19.88;72.22;100472.84;4949303;28;20273;-81
2023/07/13 00:56:28;;;;;;;2.03;1.93;;;;;;;19.87;72.90;100455.25;4954326;28;20259;-82
2023/07/13 00:58:55;;;;;;;3.73;2.00;;;;;;;19.79;72.40;100464.47;4954447;28;20205;-82
2023/07/13 01:01:21;;;;;;;2.27;1.97;;;;;;;19.81;72.73;100456.44;4954516;28;20208;-82
2023/07/13 01:03:48;;;;;;;2.33;2.13;;;;;;;19.83;72.26;100460.72;4959949;28;20259;-81
2023/07/13 01:06:16;;;;;;;2.33;2.10;;;;;;;19.82;72.14;100466.09;4939197;28;20234;-82
2023/07/13 01:08:42;;;;;;;4.43;2.57;;;;;;;19.78;72.42;100460.13;4947367;28;20236;-82
2023/07/13 01:11:10;;;;;;;3.47;2.70;;;;;;;19.73;72.06;100462.19;4945835;28;20214;-82
2023/07/13 01:13:36;;;;;;;3.60;2.27;;;;;;;19.67;71.72;100481.03;4957540;28;20228;-82
2023/07/13 01:16:08;;;;;;;2.40;2.17;;;;;;;19.67;71.71;100490.78;4945059;28;20261;-81
2023/07/13 01:18:34;;;;;;;4.10;2.17;;;;;;;19.54;71.44;100486.16;4950664;28;20208;-82
2023/07/13 01:21:04;;;;;;;3.10;2.37;;;;;;;19.55;71.06;100495.81;4957234;28;20620;-82
2023/07/13 01:23:32;;;;;;;2.83;2.10;;;;;;;19.47;71.98;100476.84;4956929;28;20227;-82
2023/07/13 01:25:59;;;;;;;2.20;2.00;;;;;;;19.43;71.96;100477.97;4962634;28;20256;-83
2023/07/13 01:28:27;;;;;;;2.87;2.63;;;;;;;19.39;71.36;100484.38;4962440;28;20824;-83
2023/07/13 01:30:55;;;;;;;2.70;2.07;;;;;;;19.35;71.12;100496.91;4958927;28;20268;-83
2023/07/13 01:33:21;;;;;;;3.13;2.27;;;;;;;19.38;71.23;100506.47;4956995;28;21314;-79
2023/07/13 01:35:48;;;;;;;2.80;2.33;;;;;;;19.35;71.14;100504.00;4962911;28;20208;-81
2023/07/13 01:38:20;;;;;;;3.10;2.43;;;;;;;19.29;70.88;100505.19;4942502;28;20625;-82
2023/07/13 01:40:47;;;;;;;3.23;2.30;;;;;;;19.26;70.98;100508.00;4946774;28;20206;-81
2023/07/13 01:43:14;;;;;;;3.90;2.47;;;;;;;19.24;70.22;100525.75;4946472;28;20567;-81
2023/07/13 01:45:40;;;;;;;3.50;2.00;;;;;;;19.21;70.97;100531.22;4961364;28;20206;-81
2023/07/13 01:48:07;;;;;;;2.17;1.93;;;;;;;19.20;70.73;100527.69;4937794;29;20201;-82
2023/07/13 01:50:33;;;;;;;2.47;1.90;;;;;;;19.14;70.34;100537.75;4953073;28;20208;-82
2023/07/13 01:53:00;;;;;;;2.90;2.00;;;;;;;19.06;70.10;100548.75;4946263;28;20212;-82
2023/07/13 01:55:29;;;;;;;2.40;1.90;;;;;;;19.10;70.48;100539.72;4937811;29;20205;-82
2023/07/13 01:57:56;;;;;;;1.93;1.60;;;;;;;19.11;70.49;100530.84;4942190;29;20230;-83
2023/07/13 02:00:22;;;;;;;2.40;2.20;;;;;;;19.11;70.39;100548.50;4943642;29;20214;-83
2023/07/13 02:02:49;;;;;;;2.13;1.70;;;;;;;19.06;70.52;100540.81;4942307;29;20272;-81
2023/07/13 02:05:15;;;;;;;2.20;1.90;;;;;;;19.00;70.64;100546.44;4954590;28;20239;-81
2023/07/13 02:07:42;;;;;;;5.57;2.50;;;;;;;18.96;71.01;100526.38;4956381;28;20209;-82
2023/07/13 02:10:11;;;;;;;3.73;1.50;;;;;;;18.96;71.60;100513.97;4957044;28;20229;-81
2023/07/13 02:12:39;;;;;;;3.40;2.20;;;;;;;18.82;70.02;100530.56;4948623;28;20259;-82
2023/07/13 02:15:07;;;;;;;1.80;1.50;;;;;;;18.89;71.45;100528.50;4940889;28;20299;-82
2023/07/13 02:17:34;;;;;;;2.20;2.00;;;;;;;18.87;71.13;100517.13;4937316;28;20258;-82
2023/07/13 02:20:01;;;;;;;2.40;1.77;;;;;;;18.81;71.48;100528.00;4937654;29;20209;-82
2023/07/13 02:22:28;;;;;;;11.10;2.10;;;;;;;18.84;71.79;100504.91;4936801;29;21135;-81
2023/07/13 02:24:54;;;;;;;1.80;1.70;;;;;;;18.84;72.08;100506.69;4937118;29;20225;-82
2023/07/13 02:27:21;;;;;;;2.00;1.70;;;;;;;18.78;72.64;100484.03;4936559;29;20213;-82
2023/07/13 02:29:51;;;;;;;2.97;1.70;;;;;;;18.76;73.20;100469.19;4936802;29;20281;-82
2023/07/13 02:32:17;;;;;;;2.17;2.00;;;;;;;18.72;74.15;100443.84;4936905;29;20212;-82
2023/07/13 02:34:44;;;;;;;4.30;1.80;;;;;;;18.65;73.10;100456.50;4949296;28;20236;-82
2023/07/13 02:37:10;;;;;;;2.63;2.20;;;;;;;18.65;72.77;100448.59;4965973;28;20217;-81
2023/07/13 02:39:36;;;;;;;2.50;1.90;;;;;;;18.63;72.17;100492.75;4963189;28;20205;-83
2023/07/13 02:42:04;;;;;;;3.07;1.70;;;;;;;18.56;71.66;100475.53;4963222;28;20281;-82
2023/07/13 02:44:30;;;;;;;3.23;1.90;;;;;;;18.59;71.34;100504.44;4945886;28;20234;-83
2023/07/13 02:46:58;;;;;;;5.37;1.90;;;;;;;18.66;71.42;100509.31;4956259;28;20201;-83
2023/07/13 02:49:24;;;;;;;2.57;1.77;;;;;;;18.69;71.87;100504.81;4958070;28;20291;-82
2023/07/13 02:51:51;;;;;;;3.40;2.13;;;;;;;18.61;73.39;100484.94;4956098;28;20271;-82
2023/07/13 02:54:17;;;;;;;3.03;2.47;;;;;;;18.58;71.27;100514.16;4955181;28;20268;-82
2023/07/13 02:56:44;;;;;;;4.87;2.40;;;;;;;18.44;71.20;100524.59;4955911;28;20619;-81
2023/07/13 02:59:10;;;;;;;2.07;1.70;;;;;;;18.49;72.08;100522.53;4955533;28;20215;-81
2023/07/13 03:01:37;;;;;;;3.60;1.87;;;;;;;18.49;73.11;100495.25;4955684;28;20205;-82
2023/07/13 03:04:05;;;;;;;2.63;2.00;;;;;;;18.35;72.54;100501.25;4955894;28;20225;-82
2023/07/13 03:06:32;;;;;;;2.40;2.00;;;;;;;18.38;72.97;100490.53;4956487;28;20276;-81
2023/07/13 03:08:59;;;;;;;2.40;2.20;;;;;;;18.38;73.47;100467.59;4955784;28;20275;-82
2023/07/13 03:11:26;;;;;;;2.53;2.07;;;;;;;18.34;73.23;100470.47;4956332;28;20212;-82
2023/07/13 03:13:53;;;;;;;2.57;1.87;;;;;;;18.31;73.96;100455.63;4951262;28;20232;-82
2023/07/13 03:16:19;;;;;;;2.17;2.00;;;;;;;18.29;74.56;100424.94;4947661;28;20216;-81
2023/07/13 03:18:47;;;;;;;1.73;1.63;;;;;;;18.30;74.82;100416.94;4956393;28;20233;-82
2023/07/13 03:21:15;;;;;;;1.93;1.73;;;;;;;18.28;75.66;100397.66;4961044;28;20205;-83
2023/07/13 03:23:41;;;;;;;2.10;1.83;;;;;;;18.26;75.75;100395.09;4960046;28;20235;-83
2023/07/13 03:26:13;;;;;;;2.27;1.63;;;;;;;18.25;75.50;100398.69;4956168;28;20205;-82
2023/07/13 03:28:40;;;;;;;2.20;2.10;;;;;;;18.23;75.40;100404.94;4955334;28;20579;-81
2023/07/13 03:31:08;;;;;;;2.87;2.00;;;;;;;18.14;75.36;100405.44;4956115;28;20201;-81
2023/07/13 03:33:35;;;;;;;1.70;1.60;;;;;;;18.14;76.00;100397.53;4954879;28;20244;-83
2023/07/13 03:36:03;;;;;;;2.10;1.70;;;;;;;18.08;76.00;100401.31;4960843;28;20630;-83
2023/07/13 03:38:31;;;;;;;3.47;1.73;;;;;;;18.02;76.50;100383.16;4961450;28;20209;-81
2023/07/13 03:40:57;;;;;;;1.90;1.73;;;;;;;18.02;76.49;100385.78;4960715;28;20206;-81
2023/07/13 03:43:23;;;;;;;1.87;1.73;;;;;;;17.93;76.97;100376.53;4940327;28;20236;-82
2023/07/13 03:45:50;;;;;;;1.90;1.80;;;;;;;17.92;76.12;100382.75;4948429;28;20391;-82
2023/07/13 03:48:16;;;;;;;2.03;1.70;;;;;;;17.99;76.24;100393.84;4955918;28;20625;-81
2023/07/13 03:50:43;;;;;;;2.30;2.10;;;;;;;18.00;76.63;100395.56;4950972;28;20589;-81
2023/07/13 03:53:09;;;;;;;2.47;1.80;;;;;;;18.02;76.35;100391.91;4944754;28;20232;-80
2023/07/13 03:55:37;;;;;;;4.03;2.20;;;;;;;18.00;75.46;100406.13;4938891;29;20579;-81
2023/07/13 03:58:27;;;;;;;2.50;2.30;;;;;;;17.95;74.51;100422.19;4955783;28;20209;-81
2023/07/13 04:00:53;;;;;;;3.57;2.00;;;;;;;17.95;74.11;100448.59;4955634;28;20207;-81
2023/07/13 04:03:19;;;;;;;3.13;2.67;;;;;;;17.97;73.84;100451.19;4954355;28;20230;-80
2023/07/13 04:05:46;;;;;;;2.70;2.23;;;;;;;18.02;73.43;100470.31;4935471;29;20201;-81
2023/07/13 04:08:13;;;;;;;4.47;2.40;;;;;;;18.05;73.83;100464.84;4942778;29;20231;-82
2023/07/13 04:10:41;;;;;;;4.20;2.37;;;;;;;18.11;73.83;100475.13;4954973;28;20311;-81
2023/07/13 04:13:07;;;;;;;3.13;2.23;;;;;;;17.84;74.29;100467.63;4951478;28;20205;-81
2023/07/13 04:15:34;;;;;;;2.37;2.17;;;;;;;17.94;73.91;100462.75;4959015;28;20213;-80
2023/07/13 04:18:01;;;;;;;3.90;2.13;;;;;;;17.96;74.77;100465.34;4936194;29;20260;-81
2023/07/13 04:20:27;;;;;;;2.33;2.13;;;;;;;17.77;74.18;100467.97;4935473;29;20218;-81
2023/07/13 04:22:53;;;;;;;3.13;2.20;;;;;;;17.90;73.98;100465.59;4934801;29;20270;-81
2023/07/13 04:25:21;;;;;;;3.83;2.83;;;;;;;17.92;74.43;100464.63;4935112;29;20676;-82
2023/07/13 04:27:48;;;;;;;3.23;2.27;;;;;;;18.00;74.46;100458.97;4949973;28;20212;-81
2023/07/13 04:30:15;;;;;;;3.37;1.90;;;;;;;17.70;75.24;100453.34;4943544;28;20225;-81
2023/07/13 04:32:41;;;;;;;2.70;1.97;;;;;;;17.78;75.69;100444.16;4935845;29;20217;-80
2023/07/13 04:35:08;;;;;;;2.70;1.90;;;;;;;17.88;75.40;100444.59;4965955;23;20591;-83
2023/07/13 04:37:35;;;;;;;4.30;2.17;;;;;;;17.96;74.80;100446.84;4970436;28;20247;-84
2023/07/13 04:40:02;;;;;;;2.10;1.90;;;;;;;18.02;74.91;100446.53;4976316;28;20212;-83
2023/07/13 04:42:28;;;;;;;4.43;2.50;;;;;;;18.09;74.19;100468.22;4976849;28;20212;-84
2023/07/13 04:44:56;;;;;;;3.33;2.30;;;;;;;18.04;74.03;100474.56;4968826;28;20321;-83
2023/07/13 04:47:22;;;;;;;2.90;1.83;;;;;;;18.06;74.44;100474.50;4976608;28;20207;-82
2023/07/13 04:49:49;;;;;;;3.57;2.30;;;;;;;17.94;74.85;100467.16;4978998;28;20267;-83
2023/07/13 04:52:15;;;;;;;3.50;2.50;;;;;;;18.06;74.89;100482.44;4980783;28;20208;-82
2023/07/13 04:54:42;;;;;;;3.37;1.87;;;;;;;18.12;75.33;100466.28;4980842;28;20231;-85
2023/07/13 04:57:08;;;;;;;2.53;2.23;;;;;;;18.19;74.92;100477.38;4981392;28;20599;-83
2023/07/13 04:59:35;;;;;;;3.07;2.30;;;;;;;18.18;74.05;100488.91;4981098;28;20212;-83
2023/07/13 05:02:03;;;;;;;3.83;2.37;;;;;;;18.24;73.67;100504.44;4981433;28;20196;-83
2023/07/13 05:04:29;;;;;;;3.97;2.07;;;;;;;18.25;74.53;100488.53;4981286;28;20211;-83
2023/07/13 05:06:55;;;;;;;4.13;2.50;;;;;;;18.28;74.09;100498.06;4981109;28;20220;-83
2023/07/13 05:09:22;;;;;;;2.23;2.00;;;;;;;18.31;74.77;100499.69;4981185;28;20228;-84
2023/07/13 05:11:48;;;;;;;4.97;2.40;;;;;;;18.35;74.66;100504.75;4979475;28;20827;-83
2023/07/13 05:14:16;;;;;;;3.50;2.17;;;;;;;18.39;74.55;100505.44;4977918;28;20259;-86
2023/07/13 05:16:43;;;;;;;3.53;2.50;;;;;;;18.46;74.52;100518.28;4977125;28;20225;-84
2023/07/13 05:19:11;;;;;;;4.50;2.23;;;;;;;18.51;74.91;100509.25;4974713;28;20205;-86
2023/07/13 05:21:37;;;;;;;2.53;1.90;;;;;;;18.56;74.11;100528.41;4975430;28;20255;-86
2023/07/13 05:24:04;;;;;;;5.23;1.93;;;;;;;18.55;73.61;100543.41;4980099;28;20204;-83
2023/07/13 05:26:30;;;;;;;4.07;2.30;;;;;;;18.64;73.55;100563.22;4980918;28;20228;-86
2023/07/13 05:28:56;;;;;;;3.03;2.53;;;;;;;18.71;73.86;100556.72;4980845;28;20239;-85
2023/07/13 05:31:23;;;;;;;2.27;2.00;;;;;;;18.71;73.71;100548.78;4981335;28;20252;-85
2023/07/13 05:33:49;;;;;;;5.00;2.40;;;;;;;18.81;73.72;100560.63;4981397;28;20209;-85
2023/07/13 05:36:17;;;;;;;5.20;2.60;;;;;;;18.86;73.78;100573.59;4980857;28;20263;-87
2023/07/13 05:38:43;;;;;;;3.43;2.40;;;;;;;18.87;73.05;100582.38;4981723;28;20563;-84
2023/07/13 05:41:09;;;;;;;6.03;2.70;;;;;;;18.80;72.55;100603.84;4981514;28;20571;-84
2023/07/13 05:43:36;;;;;;;4.73;2.73;;;;;;;18.82;72.95;100615.22;4981826;28;20667;-84
2023/07/13 05:46:02;;;;;;;2.97;2.27;;;;;;;18.71;73.50;100593.72;4969569;28;20252;-83
2023/07/13 05:48:28;;;;;;;3.50;2.37;;;;;;;18.75;73.48;100587.34;4979457;28;20216;-85
2023/07/13 05:50:55;;;;;;;3.40;2.33;;;;;;;18.72;73.08;100606.00;4980264;28;20259;-84
2023/07/13 05:53:22;;;;;;;4.07;2.03;;;;;;;18.87;72.72;100600.91;4978408;28;20212;-83
2023/07/13 05:55:49;;;;;;;3.97;2.17;;;;;;;18.97;72.39;100618.03;4969495;28;20255;-84
2023/07/13 05:58:17;;;;;;;4.80;2.20;;;;;;;18.92;71.81;100626.19;4970892;28;20659;-84
2023/07/13 06:00:43;;;;;;;5.43;2.40;;;;;;;18.91;71.87;100635.06;4977886;28;20204;-83
2023/07/13 06:03:10;;;;;;;4.53;2.87;;;;;;;18.98;72.03;100638.25;4978825;28;20662;-84
2023/07/13 06:05:39;;;;;;;6.47;1.90;;;;;;;19.02;71.58;100656.53;4979765;28;20228;-86
2023/07/13 06:08:06;;;;;;;4.90;2.57;;;;;;;18.90;71.86;100665.09;4979315;28;20263;-83
2023/07/13 06:10:35;;;;;;;3.33;2.33;;;;;;;18.82;72.29;100646.09;4978738;28;20275;-84
2023/07/13 06:13:03;;;;;;;5.27;2.90;;;;;;;18.47;71.81;100653.94;4978238;28;20215;-84
2023/07/13 06:15:29;;;;;;;5.70;2.03;;;;;;;18.54;72.28;100636.00;4978504;28;20229;-82
2023/07/13 06:17:55;;;;;;;5.53;2.63;;;;;;;18.69;73.25;100615.88;4978319;28;20242;-82
2023/07/13 06:20:22;;;;;;;5.47;2.90;;;;;;;18.81;73.05;100607.34;4978493;28;20213;-84
2023/07/13 06:22:48;;;;;;;5.40;2.67;;;;;;;18.93;71.52;100640.25;4978594;28;20259;-82
2023/07/13 06:25:15;;;;;;;3.03;2.43;;;;;;;19.00;70.08;100676.06;4978883;28;20235;-83
2023/07/13 06:27:43;;;;;;;4.53;2.43;;;;;;;19.02;69.53;100708.59;4975845;28;20209;-82
2023/07/13 06:30:11;;;;;;;3.10;1.97;;;;;;;19.04;68.53;100739.31;4972309;28;20235;-84
2023/07/13 06:32:37;;;;;;;4.13;2.07;;;;;;;19.02;68.21;100777.38;4978073;28;20212;-82
2023/07/13 06:35:04;;;;;;;5.00;2.30;;;;;;;18.63;68.01;100799.47;4977297;28;20619;-82
2023/07/13 06:37:30;;;;;;;3.27;2.23;;;;;;;18.55;67.92;100798.97;4977678;28;20228;-84
2023/07/13 06:39:57;;;;;;;7.53;2.27;;;;;;;18.69;68.52;100786.00;4978662;28;20204;-83
2023/07/13 06:42:23;;;;;;;3.80;1.90;;;;;;;18.79;68.15;100783.75;4978252;28;20235;-83
2023/07/13 06:44:51;;;;;;;5.03;1.90;;;;;;;18.95;69.24;100755.69;4978056;28;20259;-82
2023/07/13 06:47:17;;;;;;;4.27;2.03;;;;;;;18.91;66.94;100807.03;4977749;28;20208;-84
2023/07/13 06:49:43;;;;;;;1.93;1.60;;;;;;;18.95;66.94;100821.81;4973278;28;20201;-81
2023/07/13 06:52:10;;;;;;;2.87;1.70;;;;;;;18.98;66.93;100841.97;4968976;28;20212;-82
2023/07/13 06:54:36;;;;;;;3.40;1.80;;;;;;;18.67;66.67;100848.66;4971343;28;20268;-85
2023/07/13 06:57:03;;;;;;;3.43;2.17;;;;;;;18.74;67.51;100838.66;4971148;28;20295;-84
2023/07/13 06:59:29;;;;;;;2.43;1.77;;;;;;;18.76;66.96;100836.78;4977554;28;20270;-83
2023/07/13 07:01:57;;;;;;;3.80;1.77;;;;;;;18.52;67.90;100837.00;4977719;28;20211;-83
2023/07/13 07:04:23;;;;;;;2.83;1.33;;;;;;;18.61;68.36;100815.44;4975080;28;20212;-82
2023/07/13 07:06:50;;;;;;;3.57;1.53;;;;;;;18.79;68.06;100804.91;4974504;28;20228;-80
2023/07/13 07:09:17;;;;;;;2.77;1.63;;;;;;;18.84;67.96;100808.22;4971298;28;20262;-85
2023/07/13 07:11:43;;;;;;;2.63;1.60;;;;;;;18.74;67.15;100823.63;4975733;28;20259;-82
2023/07/13 07:14:10;;;;;;;3.23;1.83;;;;;;;18.85;67.49;100818.75;4975702;28;20204;-83
2023/07/13 07:16:36;;;;;;;4.70;1.87;;;;;;;18.73;67.83;100810.47;4960321;28;20283;-82
2023/07/13 07:19:04;;;;;;;4.33;1.40;;;;;;;18.58;67.65;100823.50;4977758;28;20208;-82
2023/07/13 07:21:31;;;;;;;4.20;1.50;;;;;;;18.36;68.26;100810.41;4977268;28;20212;-83
2023/07/13 07:23:59;;;;;;;4.00;1.70;;;;;;;18.12;67.61;100812.38;4975997;28;20236;-83
2023/07/13 07:26:26;;;;;;;3.70;1.60;;;;;;;18.23;68.58;100781.03;4976925;28;20614;-82
2023/07/13 07:28:52;;;;;;;5.97;1.90;;;;;;;18.39;68.35;100783.84;4975648;28;20232;-83
2023/07/13 07:31:18;;;;;;;3.63;1.20;;;;;;;18.43;67.82;100787.19;4976714;28;20259;-83
2023/07/13 07:33:45;;;;;;;4.07;1.47;;;;;;;18.54;67.20;100818.44;4976222;28;20232;-84
2023/07/13 07:36:12;;;;;;;1.67;1.17;;;;;;;18.50;67.26;100814.22;4963250;28;20248;-86
2023/07/13 07:38:39;;;;;;;3.07;1.70;;;;;;;18.59;68.22;100801.44;4975493;28;20642;-86
2023/07/13 07:41:06;;;;;;;2.37;1.60;;;;;;;18.72;67.05;100824.66;4972750;28;20675;-85
2023/07/13 07:43:32;;;;;;;2.73;1.40;;;;;;;18.53;66.68;100828.16;4966531;28;20208;-84
2023/07/13 07:45:58;;;;;;;3.00;1.50;;;;;;;18.60;66.81;100845.44;4970186;28;20224;-84
2023/07/13 07:48:25;;;;;;;3.03;1.40;;;;;;;18.70;66.91;100840.59;4974999;28;20267;-81
2023/07/13 07:50:51;;;;;;;6.60;1.20;;;;;;;18.84;65.66;100863.78;4976005;28;20231;-82
2023/07/13 07:53:19;;;;;;;3.90;1.77;;;;;;;18.87;65.82;100882.16;4974923;28;20262;-81
2023/07/13 07:55:45;;;;;;;2.70;1.60;;;;;;;18.63;65.06;100907.88;4975769;28;20240;-80
2023/07/13 07:58:12;;;;;;;5.20;1.47;;;;;;;18.82;66.46;100885.00;4975228;28;20218;-82
2023/07/13 08:00:38;;;;;;;3.87;1.50;;;;;;;18.70;65.82;100882.91;4975987;28;20204;-82
2023/07/13 08:03:04;;;;;;;3.27;1.40;;;;;;;18.81;65.71;100891.25;4977593;28;20200;-81
2023/07/13 08:05:31;;;;;;;1.63;1.10;;;;;;;18.93;65.96;100875.69;4977054;28;20652;-82
2023/07/13 08:07:57;;;;;;;2.63;1.30;;;;;;;18.81;65.06;100888.59;4976096;28;20290;-84
2023/07/13 08:10:25;;;;;;;3.93;1.30;;;;;;;18.61;66.10;100870.09;4977812;28;20232;-80
2023/07/13 08:12:51;;;;;;;2.57;1.27;;;;;;;18.54;67.01;100864.22;4977503;28;20243;-83
2023/07/13 08:15:20;;;;;;;3.47;1.40;;;;;;;18.52;68.04;100836.16;4971838;28;20228;-83
2023/07/13 08:17:47;;;;;;;3.60;1.13;;;;;;;18.54;67.36;100827.22;4974351;28;20227;-83
2023/07/13 08:20:13;;;;;;;2.97;1.20;;;;;;;18.62;66.77;100832.16;4976509;28;20259;-82
2023/07/13 08:22:39;;;;;;;5.77;1.43;;;;;;;18.70;66.73;100837.94;4972863;28;20208;-85
2023/07/13 08:25:07;;;;;;;6.77;1.77;;;;;;;18.87;65.89;100854.84;4970253;28;20220;-83
2023/07/13 08:27:34;;;;;;;2.93;1.60;;;;;;;18.80;65.18;100897.44;4969108;28;20212;-82
2023/07/13 08:30:01;;;;;;;2.73;1.30;;;;;;;19.02;64.85;100913.19;4970692;28;20595;-84
2023/07/13 08:32:27;;;;;;;1.37;1.10;;;;;;;19.14;64.89;100918.84;4974424;28;20251;-83
2023/07/13 08:34:53;;;;;;;2.00;1.40;;;;;;;19.33;64.94;100921.47;4976659;28;20639;-83
2023/07/13 08:37:20;;;;;;;3.77;1.40;;;;;;;19.21;63.90;100938.81;4977704;28;20215;-81
2023/07/13 08:39:47;;;;;;;2.80;1.43;;;;;;;19.34;64.40;100954.94;4977818;28;20216;-81
2023/07/13 08:42:20;;;;;;;2.37;1.23;;;;;;;19.45;64.42;100948.22;4976857;28;20204;-80
2023/07/13 08:44:57;;;;;;;1.97;1.40;;;;;;;19.39;63.97;100945.84;4977501;28;20741;-84
2023/07/13 08:47:25;;;;;;;2.43;1.47;;;;;;;19.20;64.47;100939.72;4977907;28;20208;-83
2023/07/13 08:49:52;;;;;;;3.43;1.50;;;;;;;18.98;64.37;100946.00;4977853;28;20212;-82
2023/07/13 08:52:37;;;;;;;2.83;1.40;;;;;;;19.25;64.40;100948.31;4976908;28;20294;-82
2023/07/13 08:55:06;;;;;;;3.60;1.87;;;;;;;18.92;63.93;100956.88;4982377;28;20221;-81
2023/07/13 08:57:35;;;;;;;3.50;1.40;;;;;;;19.22;65.11;100932.56;4957357;28;20233;-81
2023/07/13 09:00:06;;;;;;;2.43;1.40;;;;;;;19.28;64.24;100937.56;4958031;28;20219;-80
2023/07/13 09:02:43;;;;;;;3.27;1.50;;;;;;;19.44;63.18;100941.22;4958864;28;20216;-80
2023/07/13 09:05:15;;;;;;;3.90;1.47;;;;;;;19.68;64.40;100946.22;4971083;28;20252;-80
2023/07/13 09:07:56;;;;;;;2.37;1.57;;;;;;;19.77;62.90;100982.91;4977810;28;20291;-80
2023/07/13 09:10:29;;;;;;;4.57;1.77;;;;;;;19.96;63.22;100977.56;4977388;28;20683;-80
2023/07/13 09:13:06;;;;;;;3.27;1.67;;;;;;;19.98;62.20;101012.81;4977872;28;20279;-82
2023/07/13 09:15:38;;;;;;;3.57;2.27;;;;;;;19.98;61.15;101034.00;4978302;28;20231;-82
2023/07/13 09:18:11;;;;;;;3.80;1.80;;;;;;;20.12;62.22;101027.16;4978543;28;20711;-81
2023/07/13 09:20:42;;;;;;;2.47;1.70;;;;;;;20.16;62.25;101029.59;4977089;28;20206;-81
2023/07/13 09:23:17;;;;;;;4.20;1.70;;;;;;;20.14;61.59;101060.63;4970591;28;20212;-81
2023/07/13 09:25:47;;;;;;;1.70;1.60;;;;;;;20.34;61.23;101054.34;4976728;28;20239;-81
2023/07/13 09:28:19;;;;;;;3.13;2.00;;;;;;;20.26;60.56;101087.44;4976179;28;20254;-80
2023/07/13 09:30:53;;;;;;;3.77;2.00;;;;;;;19.97;60.92;101090.56;4976606;28;20228;-80
2023/07/13 09:33:19;;;;;;;3.70;1.97;;;;;;;19.99;61.91;101061.38;4975709;28;20399;-78
2023/07/13 09:35:45;;;;;;;3.17;2.00;;;;;;;19.96;62.16;101040.28;4977968;28;20808;-80
2023/07/13 09:38:14;;;;;;;3.03;2.30;;;;;;;19.92;61.19;101055.50;4980225;28;20211;-81
2023/07/13 09:40:58;;;;;;;4.07;2.30;;;;;;;20.13;61.86;101058.88;4984721;28;20211;-81
2023/07/13 09:43:26;;;;;;;5.27;2.20;;;;;;;20.03;61.10;101065.56;4959514;28;20209;-80
2023/07/13 09:45:54;;;;;;;2.80;1.97;;;;;;;20.03;61.36;101061.13;4977671;28;20270;-82
2023/07/13 09:48:20;;;;;;;3.30;2.20;;;;;;;20.09;61.45;101053.81;4979857;28;20228;-79
2023/07/13 09:50:47;;;;;;;3.30;2.00;;;;;;;20.14;60.29;101075.69;4980005;28;20627;-80
2023/07/13 09:53:15;;;;;;;2.67;2.10;;;;;;;20.30;61.16;101054.56;4983609;28;20209;-80
2023/07/13 09:55:43;;;;;;;3.37;2.10;;;;;;;20.35;59.56;101087.84;4961311;28;20253;-80
2023/07/13 09:58:14;;;;;;;3.30;1.60;;;;;;;20.43;59.17;101106.03;4973210;28;20217;-81
2023/07/13 10:00:41;;;;;;;2.50;2.30;;;;;;;20.65;60.40;101097.03;4985484;28;20219;-81
2023/07/13 10:03:20;;;;;;;3.20;1.90;;;;;;;20.87;59.82;101102.09;4998344;28;20325;-80
2023/07/13 10:05:49;;;;;;;3.57;2.00;;;;;;;20.75;58.82;101138.97;4992132;28;20694;-80
2023/07/13 10:08:19;;;;;;;3.47;2.00;;;;;;;20.78;58.81;101149.41;4980571;28;20239;-80
2023/07/13 10:10:46;;;;;;;2.00;1.70;;;;;;;20.80;58.27;101168.78;4976446;28;20213;-80
2023/07/13 10:13:31;;;;;;;3.03;1.70;;;;;;;21.06;59.11;101149.81;4964218;28;20262;-79
2023/07/13 10:15:59;;;;;;;2.37;1.70;;;;;;;20.82;56.21;101205.84;4980282;28;20231;-80
2023/07/13 10:18:30;;;;;;;2.53;1.83;;;;;;;20.93;57.20;101216.81;4979978;28;20204;-80
2023/07/13 10:21:11;;;;;;;2.70;1.67;;;;;;;20.95;57.21;101214.03;4980297;28;20208;-80
2023/07/13 10:23:37;;;;;;;3.63;2.43;;;;;;;21.10;57.59;101201.81;4979160;28;20219;-80
2023/07/13 10:26:05;;;;;;;3.33;1.67;;;;;;;21.21;58.42;101202.97;4982133;28;20228;-80
2023/07/13 10:28:37;;;;;;;2.03;1.60;;;;;;;21.35;56.52;101220.00;4971819;28;20205;-79
2023/07/13 10:31:06;;;;;;;5.50;2.10;;;;;;;21.36;55.07;101277.50;4960341;28;20313;-79
2023/07/13 10:33:34;;;;;;;2.37;1.77;;;;;;;21.13;54.81;101292.78;4960680;28;20269;-80
2023/07/13 10:36:06;;;;;;;4.20;2.17;;;;;;;20.93;56.05;101277.84;4980153;23;20657;-82
2023/07/13 10:38:34;;;;;;;2.90;1.83;;;;;;;21.12;57.14;101247.72;4975172;28;20212;-80
2023/07/13 10:41:04;;;;;;;3.47;2.00;;;;;;;21.37;56.66;101244.69;4973369;28;20208;-79
2023/07/13 10:43:36;;;;;;;2.23;1.53;;;;;;;21.37;55.63;101252.66;4969378;28;20212;-79
2023/07/13 10:46:06;;;;;;;3.17;1.93;;;;;;;21.57;54.36;101283.53;4975028;28;20242;-80
2023/07/13 10:48:36;;;;;;;5.23;2.07;;;;;;;21.65;54.73;101297.28;4975199;28;20231;-81
2023/07/13 10:51:06;;;;;;;2.50;1.50;;;;;;;21.55;53.49;101327.94;4975177;28;20212;-80
2023/07/13 10:53:35;;;;;;;2.50;1.60;;;;;;;21.73;54.79;101332.31;4974662;28;20299;-79
2023/07/13 10:56:05;;;;;;;2.87;1.80;;;;;;;21.77;53.77;101359.59;4981739;28;20293;-80
2023/07/13 10:58:36;;;;;;;2.30;1.53;;;;;;;21.91;53.40;101365.03;4956400;28;20217;-81
2023/07/13 11:01:10;;;;;;;2.80;1.70;;;;;;;22.08;54.50;101365.94;4957688;28;20260;-81
2023/07/13 11:03:49;;;;;;;2.70;1.80;;;;;;;22.13;53.37;101372.75;4969597;28;20204;-81
2023/07/13 11:06:17;;;;;;;5.37;1.63;;;;;;;21.96;53.33;101378.09;4975033;28;20737;-80
2023/07/13 11:08:54;;;;;;;3.63;1.90;;;;;;;22.00;53.55;101361.03;4974748;28;20208;-82
2023/07/13 11:11:38;;;;;;;2.17;1.60;;;;;;;22.17;52.33;101373.47;4975353;28;20312;-81
2023/07/13 11:14:07;;;;;;;2.47;1.50;;;;;;;22.07;51.14;101420.09;4958524;28;20232;-81
2023/07/13 11:16:44;;;;;;;2.53;1.50;;;;;;;22.03;51.77;101448.63;4974550;28;20224;-81
2023/07/13 11:19:45;;;;;;;2.33;1.50;;;;;;;21.83;51.30;101451.44;4974875;28;20207;-81
2023/07/13 11:22:21;;;;;;;2.47;1.50;;;;;;;21.68;52.51;101443.28;4895971;29;20632;-81
2023/07/13 11:25:26;;;;;;;2.87;1.57;;;;;;;21.42;51.78;101442.72;4895940;29;20225;-81
2023/07/13 11:28:04;;;;;;;2.47;1.47;;;;;;;21.40;52.52;101418.03;4956389;28;20211;-81
2023/07/13 11:30:37;;;;;;;4.73;2.57;;;;;;;21.48;52.78;101393.78;4975195;28;20206;-81